Time;durP1;ratioP1;P1;durP2;ratioP2;P2;SDS_P1;SDS_P2;PMS_P1;PMS_P2;Temp;Humidity;BMP_temperature;BMP_pressure;BME280_temperature;BME280_humidity;BME280_pressure;Samples;Min_cycle;Max_cycle;Signal;HPM_P1;HPM_P2
2023/09/11 00:01:41;;;;;;;20.03;18.83;;;21.80;1.00;;;;;;4964289;28;20485;-84
2023/09/11 00:04:09;;;;;;;22.37;21.00;;;21.70;1.00;;;;;;4963352;28;20550;-85
2023/09/11 00:06:38;;;;;;;21.77;20.50;;;21.70;1.00;;;;;;4963072;28;20479;-84
2023/09/11 00:09:07;;;;;;;21.47;20.10;;;21.70;1.00;;;;;;4962056;28;20459;-86
2023/09/11 00:11:36;;;;;;;20.40;19.40;;;21.70;1.00;;;;;;4969310;28;20467;-83
2023/09/11 00:14:05;;;;;;;21.53;20.33;;;21.70;1.00;;;;;;4965938;28;20455;-84
2023/09/11 00:16:33;;;;;;;22.57;21.10;;;21.60;1.00;;;;;;4965322;28;20487;-84
2023/09/11 00:19:03;;;;;;;22.83;21.33;;;21.70;1.00;;;;;;4961479;28;20460;-82
2023/09/11 00:21:52;;;;;;;21.83;20.60;;;21.70;1.00;;;;;;4978133;28;20560;-84
2023/09/11 00:24:20;;;;;;;21.97;20.70;;;21.60;1.00;;;;;;4963553;28;20495;-85
2023/09/11 00:26:50;;;;;;;21.50;20.20;;;21.70;1.00;;;;;;4965472;28;20572;-83
2023/09/11 00:29:19;;;;;;;21.50;20.20;;;21.70;1.00;;;;;;4961744;28;20481;-84
2023/09/11 00:31:47;;;;;;;21.50;20.40;;;21.60;1.00;;;;;;4962331;28;20459;-84
2023/09/11 00:34:16;;;;;;;21.33;20.13;;;21.60;1.00;;;;;;4960772;28;20451;-84
2023/09/11 00:36:44;;;;;;;21.10;19.90;;;21.60;1.00;;;;;;4962512;28;20470;-83
2023/09/11 00:39:12;;;;;;;21.73;20.40;;;21.60;1.00;;;;;;4960087;28;20467;-83
2023/09/11 00:41:42;;;;;;;21.50;20.30;;;21.50;1.00;;;;;;4959009;28;20617;-84
2023/09/11 00:44:12;;;;;;;23.10;21.80;;;21.50;1.00;;;;;;4963253;28;20558;-83
2023/09/11 00:46:41;;;;;;;22.60;21.30;;;21.50;12.90;;;;;;4964926;28;20476;-82
2023/09/11 00:49:09;;;;;;;22.60;20.53;;;21.40;18.00;;;;;;4960448;28;20468;-83
2023/09/11 00:51:38;;;;;;;21.27;20.10;;;21.50;23.80;;;;;;4962812;28;20447;-82
2023/09/11 00:54:10;;;;;;;23.30;21.83;;;21.40;35.00;;;;;;4960539;28;20448;-85
2023/09/11 00:56:38;;;;;;;20.10;19.13;;;21.40;24.50;;;;;;4964632;28;20563;-83
2023/09/11 00:59:11;;;;;;;21.13;19.90;;;21.40;17.90;;;;;;4964794;28;20496;-83
2023/09/11 01:01:42;;;;;;;22.67;21.13;;;21.40;65.40;;;;;;4967936;28;20470;-84
2023/09/11 01:04:13;;;;;;;21.60;20.33;;;21.30;53.60;;;;;;4964014;28;21327;-84
2023/09/11 01:06:42;;;;;;;21.53;20.40;;;21.30;63.10;;;;;;4964133;28;20567;-85
2023/09/11 01:09:10;;;;;;;21.97;20.67;;;21.30;74.90;;;;;;4957656;28;20506;-84
2023/09/11 01:11:38;;;;;;;20.80;19.60;;;21.30;37.30;;;;;;4965168;28;20503;-85
2023/09/11 01:14:06;;;;;;;21.40;20.30;;;21.20;39.60;;;;;;4964709;28;21915;-84
2023/09/11 01:16:45;;;;;;;22.43;21.23;;;21.20;48.10;;;;;;4965287;28;20467;-84
2023/09/11 01:19:37;;;;;;;22.13;20.77;;;21.20;32.20;;;;;;4963364;28;20535;-84
2023/09/11 01:22:28;;;;;;;21.03;20.03;;;21.20;33.50;;;;;;4965517;28;20451;-85
2023/09/11 01:25:24;;;;;;;21.17;19.87;;;21.10;28.90;;;;;;4959100;28;20511;-85
2023/09/11 01:28:16;;;;;;;19.87;18.97;;;21.10;44.90;;;;;;4962657;28;20533;-84
2023/09/11 01:30:47;;;;;;;21.27;19.73;;;21.20;24.10;;;;;;4963895;28;20456;-85
2023/09/11 01:33:15;;;;;;;21.10;19.90;;;21.10;16.90;;;;;;4963531;28;20534;-84
2023/09/11 01:35:44;;;;;;;21.00;19.70;;;21.10;25.80;;;;;;4976170;28;20465;-84
2023/09/11 01:38:13;;;;;;;20.97;19.87;;;21.10;41.80;;;;;;4964925;28;20482;-84
2023/09/11 01:40:44;;;;;;;21.07;20.00;;;21.00;13.30;;;;;;4961641;28;20467;-85
2023/09/11 01:43:15;;;;;;;21.37;20.13;;;21.10;25.60;;;;;;4960483;28;20471;-83
2023/09/11 01:45:46;;;;;;;23.20;21.80;;;21.10;11.80;;;;;;4966933;28;20469;-83
2023/09/11 01:48:15;;;;;;;21.87;20.47;;;21.00;26.20;;;;;;4965540;28;20531;-82
2023/09/11 01:50:44;;;;;;;21.87;20.70;;;21.00;31.50;;;;;;4966276;28;20536;-85
2023/09/11 01:53:13;;;;;;;22.50;21.40;;;21.00;63.40;;;;;;4968381;28;20449;-85
2023/09/11 01:55:42;;;;;;;22.23;21.00;;;21.00;99.90;;;;;;4965082;28;20454;-84
2023/09/11 01:58:10;;;;;;;20.83;19.83;;;20.90;99.90;;;;;;4970952;28;20500;-86
2023/09/11 02:00:38;;;;;;;20.63;19.70;;;21.00;99.90;;;;;;4965097;28;20656;-85
2023/09/11 02:03:09;;;;;;;20.90;19.90;;;20.90;99.90;;;;;;4968422;28;20996;-85
2023/09/11 02:05:38;;;;;;;21.10;20.00;;;20.90;99.90;;;;;;4965348;28;20475;-86
2023/09/11 02:08:07;;;;;;;21.73;20.43;;;20.90;95.20;;;;;;4965813;28;20486;-84
2023/09/11 02:10:35;;;;;;;21.90;20.70;;;20.90;97.60;;;;;;4968474;28;20504;-86
2023/09/11 02:13:03;;;;;;;21.40;20.10;;;20.80;79.60;;;;;;4967072;28;20459;-85
2023/09/11 02:15:32;;;;;;;21.17;20.00;;;20.80;92.70;;;;;;4964225;28;20464;-85
2023/09/11 02:18:00;;;;;;;20.93;19.70;;;20.80;98.70;;;;;;4966065;28;20559;-86
2023/09/11 02:20:30;;;;;;;22.20;21.00;;;20.80;99.90;;;;;;4966689;28;20463;-86
2023/09/11 02:22:58;;;;;;;20.50;19.40;;;20.80;71.50;;;;;;4962295;28;20469;-86
2023/09/11 02:25:26;;;;;;;21.00;19.63;;;20.70;92.30;;;;;;4967218;28;20575;-83
2023/09/11 02:27:54;;;;;;;20.93;19.80;;;20.70;60.80;;;;;;4968856;28;20561;-85
2023/09/11 02:30:22;;;;;;;20.70;19.60;;;20.70;97.60;;;;;;4959948;28;21340;-87
2023/09/11 02:32:51;;;;;;;20.63;19.63;;;20.70;84.10;;;;;;4965481;28;20817;-85
2023/09/11 02:35:19;;;;;;;21.37;20.17;;;20.70;29.70;;;;;;4983617;28;20444;-85
2023/09/11 02:37:49;;;;;;;21.50;20.30;;;20.80;25.40;;;;;;4967161;28;20487;-85
2023/09/11 02:40:17;;;;;;;20.50;19.20;;;20.80;14.10;;;;;;4966071;28;20451;-85
2023/09/11 02:42:46;;;;;;;21.03;20.03;;;20.70;1.00;;;;;;4962699;28;20476;-85
2023/09/11 02:45:14;;;;;;;20.43;19.30;;;20.70;1.00;;;;;;4966789;28;20494;-83
2023/09/11 02:47:42;;;;;;;20.30;19.20;;;20.60;1.00;;;;;;4960831;28;21002;-84
2023/09/11 02:50:10;;;;;;;20.97;19.87;;;20.60;10.90;;;;;;4964981;28;20568;-85
2023/09/11 02:52:39;;;;;;;21.27;20.10;;;20.60;22.60;;;;;;4965668;28;20453;-84
2023/09/11 02:55:11;;;;;;;21.57;20.40;;;20.50;20.00;;;;;;4963357;28;21372;-85
2023/09/11 02:57:39;;;;;;;20.87;19.77;;;20.50;40.60;;;;;;4962465;28;20546;-83
2023/09/11 03:00:09;;;;;;;21.10;19.90;;;20.50;56.10;;;;;;4964295;28;20464;-84
2023/09/11 03:02:37;;;;;;;20.60;19.50;;;20.60;62.00;;;;;;4961884;28;20494;-83
2023/09/11 03:05:06;;;;;;;20.07;19.07;;;20.60;30.20;;;;;;4960725;28;20542;-83
2023/09/11 03:07:34;;;;;;;20.43;19.37;;;20.50;27.90;;;;;;4962449;28;20522;-83
2023/09/11 03:10:03;;;;;;;21.60;20.30;;;20.50;62.60;;;;;;4958515;28;20469;-84
2023/09/11 03:12:33;;;;;;;23.53;21.73;;;20.40;99.90;;;;;;4961425;28;20462;-84
2023/09/11 03:15:03;;;;;;;21.40;20.30;;;20.40;99.90;;;;;;4963806;28;20457;-82
2023/09/11 03:17:31;;;;;;;20.83;19.73;;;20.40;99.90;;;;;;4961470;28;21083;-84
2023/09/11 03:20:00;;;;;;;20.50;19.50;;;20.40;99.90;;;;;;4960794;28;20539;-84
2023/09/11 03:22:29;;;;;;;21.23;20.07;;;20.40;99.90;;;;;;4961703;28;20464;-84
2023/09/11 03:24:58;;;;;;;21.73;20.63;;;20.40;69.50;;;;;;4963551;28;20485;-84
2023/09/11 03:27:26;;;;;;;22.10;20.70;;;20.30;99.90;;;;;;4964157;28;20583;-82
2023/09/11 03:29:55;;;;;;;21.93;20.73;;;20.30;99.90;;;;;;4960691;28;20460;-84
2023/09/11 03:32:24;;;;;;;22.27;21.17;;;20.30;99.90;;;;;;4961673;28;20898;-84
2023/09/11 03:34:54;;;;;;;21.73;20.53;;;20.30;99.90;;;;;;4962973;28;20456;-83
2023/09/11 03:37:22;;;;;;;22.10;20.90;;;20.30;99.90;;;;;;4963287;28;20480;-83
2023/09/11 03:39:50;;;;;;;20.33;19.23;;;20.20;99.90;;;;;;4960996;28;20545;-85
2023/09/11 03:42:18;;;;;;;21.57;20.50;;;20.10;99.90;;;;;;4962927;28;21116;-82
2023/09/11 03:44:47;;;;;;;22.27;21.07;;;20.20;99.90;;;;;;4965722;28;20467;-84
2023/09/11 03:47:16;;;;;;;22.70;21.30;;;20.10;99.90;;;;;;4962042;28;20507;-84
2023/09/11 03:49:46;;;;;;;21.80;20.60;;;20.00;99.90;;;;;;4960868;28;20539;-84
2023/09/11 03:52:14;;;;;;;22.07;20.77;;;20.00;99.90;;;;;;4964118;28;20495;-85
2023/09/11 03:54:42;;;;;;;21.40;20.00;;;20.00;99.90;;;;;;4962104;28;20475;-84
2023/09/11 03:57:10;;;;;;;21.90;20.70;;;20.00;99.90;;;;;;4961630;28;20478;-84
2023/09/11 03:59:39;;;;;;;21.13;19.83;;;20.00;99.90;;;;;;4962126;28;20456;-82
2023/09/11 04:02:07;;;;;;;22.23;20.80;;;20.00;99.90;;;;;;4956117;28;21136;-84
2023/09/11 04:04:37;;;;;;;21.37;20.27;;;20.00;99.90;;;;;;4961682;28;20530;-82
2023/09/11 04:07:05;;;;;;;21.50;20.40;;;19.90;99.90;;;;;;4964055;28;20476;-83
2023/09/11 04:09:33;;;;;;;21.00;19.90;;;19.90;99.90;;;;;;4962461;28;20558;-84
2023/09/11 04:12:03;;;;;;;22.43;21.13;;;19.80;99.90;;;;;;4962240;28;20555;-84
2023/09/11 04:14:37;;;;;;;21.70;20.70;;;19.80;99.90;;;;;;4962224;28;20491;-84
2023/09/11 04:17:05;;;;;;;21.97;20.67;;;19.80;99.90;;;;;;4963161;28;20507;-81
2023/09/11 04:19:33;;;;;;;22.87;21.47;;;19.80;99.90;;;;;;4963530;28;20984;-86
2023/09/11 04:22:04;;;;;;;22.30;21.07;;;19.80;99.90;;;;;;4961961;28;20934;-83
2023/09/11 04:24:32;;;;;;;22.17;21.00;;;19.80;99.90;;;;;;4960551;28;20461;-85
2023/09/11 04:27:01;;;;;;;21.13;19.93;;;19.70;99.90;;;;;;4965540;28;20496;-85
2023/09/11 04:29:31;;;;;;;22.00;20.80;;;19.70;99.90;;;;;;4965810;28;20456;-84
2023/09/11 04:31:59;;;;;;;21.90;20.60;;;19.70;99.90;;;;;;4975989;28;20464;-84
2023/09/11 04:34:28;;;;;;;22.33;20.90;;;19.70;99.90;;;;;;4959416;28;20461;-84
2023/09/11 04:36:56;;;;;;;21.97;20.83;;;19.70;99.90;;;;;;4963548;28;20989;-84
2023/09/11 04:39:26;;;;;;;22.00;20.70;;;19.80;99.90;;;;;;4960375;28;20471;-85
2023/09/11 04:41:54;;;;;;;22.50;21.03;;;19.80;99.90;;;;;;4962685;28;20468;-85
2023/09/11 04:44:23;;;;;;;22.27;20.93;;;19.80;99.90;;;;;;4966433;28;20495;-82
2023/09/11 04:46:51;;;;;;;22.50;21.17;;;19.80;99.90;;;;;;4958346;28;21250;-83
2023/09/11 04:49:37;;;;;;;22.27;21.00;;;19.80;99.90;;;;;;4963322;28;20456;-83
2023/09/11 04:52:06;;;;;;;22.97;21.53;;;19.80;99.90;;;;;;4964278;28;20979;-83
2023/09/11 04:54:35;;;;;;;21.53;20.43;;;19.90;99.90;;;;;;4965963;28;20596;-83
2023/09/11 04:57:04;;;;;;;23.37;22.07;;;19.90;99.90;;;;;;4960399;28;20863;-84
2023/09/11 04:59:32;;;;;;;21.90;20.70;;;19.90;99.90;;;;;;4963936;28;20475;-84
2023/09/11 05:02:00;;;;;;;23.23;21.57;;;20.00;99.90;;;;;;4967129;28;20513;-82
2023/09/11 05:04:28;;;;;;;23.27;21.90;;;20.00;99.90;;;;;;4960503;28;20455;-83
2023/09/11 05:06:57;;;;;;;22.50;21.20;;;20.00;99.90;;;;;;4955521;28;20491;-83
2023/09/11 05:09:25;;;;;;;23.37;22.07;;;20.10;99.90;;;;;;4966462;28;20459;-82
2023/09/11 05:11:54;;;;;;;22.57;21.37;;;20.00;99.90;;;;;;4962423;28;20497;-83
2023/09/11 05:14:22;;;;;;;23.17;21.87;;;20.00;99.90;;;;;;4960299;28;20472;-83
2023/09/11 05:17:18;;;;;;;23.33;22.13;;;20.00;99.90;;;;;;4961044;28;20591;-85
2023/09/11 05:19:46;;;;;;;23.73;22.25;;;20.00;99.90;;;;;;4963100;28;20895;-83
2023/09/11 05:22:14;;;;;;;23.53;22.23;;;19.70;99.90;;;;;;4961654;28;20212;-83
2023/09/11 05:24:42;;;;;;;23.03;21.70;;;19.90;99.90;;;;;;4962321;28;20453;-83
2023/09/11 05:27:11;;;;;;;22.90;21.63;;;20.00;99.90;;;;;;4959553;28;20908;-81
2023/09/11 05:29:39;;;;;;;23.07;21.67;;;20.00;99.90;;;;;;4962895;28;20965;-82
2023/09/11 05:32:08;;;;;;;22.50;21.40;;;20.00;99.90;;;;;;4960098;28;20468;-82
2023/09/11 05:34:36;;;;;;;22.43;21.13;;;20.00;99.90;;;;;;4962039;28;20458;-82
2023/09/11 05:37:04;;;;;;;22.83;21.63;;;19.90;99.90;;;;;;4965880;28;20558;-83
2023/09/11 05:39:33;;;;;;;22.50;21.10;;;20.00;99.90;;;;;;4965935;28;20464;-82
2023/09/11 05:42:01;;;;;;;21.93;20.70;;;20.00;99.90;;;;;;4961861;28;20470;-82
2023/09/11 05:44:30;;;;;;;21.97;20.67;;;20.00;99.90;;;;;;4963558;28;20466;-84
2023/09/11 05:46:58;;;;;;;21.57;20.47;;;20.00;99.90;;;;;;4963598;28;20485;-84
2023/09/11 05:49:28;;;;;;;22.43;21.10;;;20.00;99.90;;;;;;4963802;28;20806;-84
2023/09/11 05:51:59;;;;;;;22.63;21.42;;;20.00;99.90;;;;;;4967687;28;20454;-83
2023/09/11 05:54:29;;;;;;;21.63;20.43;;;19.80;99.90;;;;;;4962807;28;20299;-85
2023/09/11 05:57:03;;;;;;;22.10;20.90;;;20.00;99.90;;;;;;4968294;28;20479;-83
2023/09/11 05:59:33;;;;;;;22.07;20.97;;;20.00;99.90;;;;;;4980556;28;20499;-83
2023/09/11 06:02:01;;;;;;;22.60;21.13;;;20.00;99.90;;;;;;4967512;28;20474;-83
2023/09/11 06:04:30;;;;;;;22.70;21.40;;;20.10;99.90;;;;;;4966210;28;20494;-82
2023/09/11 06:06:59;;;;;;;23.30;21.70;;;20.20;99.90;;;;;;4968542;28;20492;-83
2023/09/11 06:09:27;;;;;;;21.97;20.77;;;20.20;99.90;;;;;;4966681;28;20571;-83
2023/09/11 06:11:55;;;;;;;23.30;22.10;;;20.30;99.90;;;;;;4971942;28;20564;-83
2023/09/11 06:14:24;;;;;;;23.23;21.70;;;20.40;99.90;;;;;;4970644;28;20467;-84
2023/09/11 06:16:53;;;;;;;22.37;21.17;;;20.40;99.90;;;;;;4967032;28;20498;-84
2023/09/11 06:19:22;;;;;;;24.50;23.00;;;20.40;99.90;;;;;;4967949;28;20462;-82
2023/09/11 06:21:50;;;;;;;24.17;22.87;;;20.50;99.90;;;;;;4970876;28;20996;-84
2023/09/11 06:24:18;;;;;;;23.67;22.27;;;20.60;99.90;;;;;;4969822;28;20455;-81
2023/09/11 06:26:46;;;;;;;23.70;22.40;;;20.60;99.90;;;;;;4966561;28;20479;-87
2023/09/11 06:29:14;;;;;;;23.43;22.10;;;20.70;99.90;;;;;;4963354;28;21042;-85
2023/09/11 06:36:34;;;;;;;24.57;22.97;;;20.90;40.70;;;;;;4972896;28;20419;-84
2023/09/11 06:39:24;;;;;;;24.80;23.40;;;20.90;20.10;;;;;;5008856;28;20502;-84
2023/09/11 06:42:43;;;;;;;24.33;22.80;;;20.90;2.80;;;;;;5008680;28;20479;-81
2023/09/11 06:54:00;;;;;;;23.53;22.10;;;21.20;1.00;;;;;;5007621;28;20505;-84
2023/09/11 07:08:19;;;;;;;24.37;22.77;;;21.50;1.00;;;;;;4940052;28;20920;-85
2023/09/11 07:11:19;;;;;;;23.07;21.63;;;21.60;1.00;;;;;;4895108;28;20456;-84
2023/09/11 07:13:48;;;;;;;26.13;24.10;;;21.70;1.00;;;;;;4938840;28;20852;-83
2023/09/11 07:17:38;;;;;;;24.00;22.40;;;21.80;1.00;;;;;;4891241;29;20620;-83
2023/09/11 07:20:12;;;;;;;23.50;21.90;;;21.90;1.00;;;;;;4930434;29;20465;-85
2023/09/11 07:27:13;;;;;;;24.00;22.50;;;22.10;1.00;;;;;;5316587;23;20558;31
2023/09/11 07:29:41;;;;;;;23.83;22.23;;;22.20;1.00;;;;;;4989793;28;20486;-85
2023/09/11 07:32:10;;;;;;;23.27;21.80;;;22.20;1.00;;;;;;4990516;28;20791;-85
2023/09/11 07:34:38;;;;;;;23.57;21.87;;;22.30;1.00;;;;;;4991783;28;20477;-82
2023/09/11 07:37:06;;;;;;;23.07;21.70;;;22.20;1.00;;;;;;4994854;28;20477;-84
2023/09/11 07:39:35;;;;;;;24.77;23.17;;;22.20;1.00;;;;;;5009349;28;20490;-85
2023/09/11 07:42:03;;;;;;;23.87;22.50;;;22.20;1.00;;;;;;5009802;28;20557;-86
2023/09/11 07:44:32;;;;;;;24.63;22.80;;;22.30;1.00;;;;;;5010475;28;20544;-84
2023/09/11 07:47:01;;;;;;;24.70;22.30;;;22.40;1.00;;;;;;5010546;28;20552;-85
2023/09/11 07:49:29;;;;;;;23.10;21.60;;;22.50;1.00;;;;;;5014564;28;20504;-84
2023/09/11 07:51:57;;;;;;;24.40;23.07;;;22.70;1.00;;;;;;5007884;28;20835;-84
2023/09/11 07:54:25;;;;;;;23.20;21.80;;;22.80;1.00;;;;;;5010010;28;20457;-84
2023/09/11 07:56:53;;;;;;;24.23;22.47;;;22.90;1.00;;;;;;5016450;28;20492;-85
2023/09/11 07:59:22;;;;;;;24.10;22.50;;;23.00;1.00;;;;;;5026752;28;20537;-84
2023/09/11 08:01:51;;;;;;;23.87;22.17;;;23.00;1.00;;;;;;5026680;28;20451;-83
2023/09/11 08:04:19;;;;;;;23.40;21.83;;;23.10;1.00;;;;;;5005953;28;20457;-86
2023/09/11 08:06:48;;;;;;;23.33;21.63;;;23.30;1.00;;;;;;5031847;28;20565;-87
2023/09/11 08:09:16;;;;;;;22.43;21.07;;;23.40;1.00;;;;;;5029468;28;20997;-86
2023/09/11 08:11:44;;;;;;;22.33;21.17;;;23.40;1.00;;;;;;5024491;28;20484;-85
2023/09/11 08:14:13;;;;;;;23.27;21.87;;;23.50;1.00;;;;;;5022722;28;20459;-85
2023/09/11 08:16:42;;;;;;;22.40;21.00;;;23.60;1.00;;;;;;5032488;28;20564;-84
2023/09/11 08:19:12;;;;;;;22.57;21.27;;;23.60;1.00;;;;;;5025297;28;20445;-85
2023/09/11 08:21:40;;;;;;;22.87;20.87;;;23.70;1.00;;;;;;5028669;28;20461;-84
2023/09/11 08:24:08;;;;;;;22.13;20.93;;;23.80;99.90;;;;;;5024474;28;20489;-81
2023/09/11 08:26:38;;;;;;;22.80;21.47;;;23.90;99.90;;;;;;5029638;28;20499;-85
2023/09/11 08:29:10;;;;;;;22.10;20.70;;;23.90;99.90;;;;;;5008125;28;20484;-85
2023/09/11 08:31:39;;;;;;;22.33;20.87;;;24.00;99.90;;;;;;5021494;28;20452;-87
2023/09/11 08:34:47;;;;;;;21.97;20.87;;;24.00;99.90;;;;;;5010779;28;20472;-84
2023/09/11 08:40:54;;;;;;;20.30;19.40;;;24.20;99.90;;;;;;5049696;28;20543;-84
2023/09/11 08:43:39;;;;;;;21.30;20.20;;;24.30;99.90;;;;;;5044650;28;20550;-85
2023/09/11 08:46:33;;;;;;;20.30;19.10;;;24.40;99.90;;;;;;5044912;28;20959;-82
2023/09/11 08:49:03;;;;;;;22.80;21.23;;;24.50;99.90;;;;;;5027290;28;20477;-84
2023/09/11 08:51:38;;;;;;;20.10;19.10;;;24.50;99.90;;;;;;5034087;28;20902;-85
2023/09/11 08:54:09;;;;;;;21.00;19.90;;;24.50;99.90;;;;;;5033303;28;20452;-83
2023/09/11 08:56:42;;;;;;;21.37;20.27;;;24.60;99.90;;;;;;5030622;28;20477;-84
2023/09/11 08:59:13;;;;;;;21.10;19.90;;;24.70;99.90;;;;;;5030111;28;20544;-84
2023/09/11 09:01:43;;;;;;;20.27;19.47;;;24.70;99.90;;;;;;5032094;28;20464;-85
2023/09/11 09:04:13;;;;;;;21.07;20.00;;;24.80;99.90;;;;;;5027540;28;20995;-84
2023/09/11 09:06:42;;;;;;;21.50;20.10;;;24.90;99.90;;;;;;5030153;28;20514;-84
2023/09/11 09:09:10;;;;;;;20.67;19.70;;;24.90;99.90;;;;;;5031079;28;20481;-84
2023/09/11 09:11:47;;;;;;;21.83;20.73;;;24.90;99.90;;;;;;5030945;28;20461;-83
2023/09/11 09:14:20;;;;;;;22.03;20.70;;;25.10;99.90;;;;;;5008911;28;20460;-85
2023/09/11 09:16:49;;;;;;;20.83;19.77;;;25.20;99.90;;;;;;5009540;28;20469;-86
2023/09/11 09:19:20;;;;;;;20.63;19.70;;;25.30;99.90;;;;;;5031869;28;20461;-84
2023/09/11 09:22:09;;;;;;;20.60;19.60;;;25.20;99.90;;;;;;5029539;28;20460;-84
2023/09/11 09:24:47;;;;;;;21.33;19.97;;;25.40;99.90;;;;;;5030724;28;20451;-83
2023/09/11 09:27:17;;;;;;;20.07;18.97;;;25.30;99.90;;;;;;5029070;28;20505;-88
2023/09/11 09:29:47;;;;;;;20.80;19.60;;;25.30;99.90;;;;;;5025571;28;20477;-84
2023/09/11 09:32:19;;;;;;;21.37;19.87;;;25.40;99.90;;;;;;5026001;28;20464;-87
2023/09/11 09:34:53;;;;;;;20.30;19.00;;;25.50;99.90;;;;;;5025241;28;20464;-87
2023/09/11 09:37:22;;;;;;;21.30;20.10;;;25.70;99.90;;;;;;5026479;28;20485;-85
2023/09/11 09:39:51;;;;;;;21.13;20.03;;;25.80;99.90;;;;;;5031178;28;20452;-83
2023/09/11 09:42:21;;;;;;;21.27;20.27;;;25.80;99.90;;;;;;4951041;28;20484;-84
2023/09/11 09:44:52;;;;;;;21.20;20.13;;;25.80;99.90;;;;;;4968265;28;20489;-85
2023/09/11 09:47:23;;;;;;;21.33;20.23;;;25.90;99.90;;;;;;5029551;28;20468;-84
2023/09/11 09:49:52;;;;;;;21.97;20.50;;;26.00;99.90;;;;;;5027548;28;20550;-84
2023/09/11 09:52:23;;;;;;;21.60;20.47;;;26.00;99.90;;;;;;5030947;28;20461;-84
2023/09/11 09:54:54;;;;;;;21.20;20.20;;;25.90;99.90;;;;;;5030552;28;20492;-85
2023/09/11 09:57:25;;;;;;;21.47;20.10;;;25.90;99.90;;;;;;5027169;28;20513;-84
2023/09/11 09:59:57;;;;;;;21.40;20.17;;;25.90;99.90;;;;;;5027129;28;21041;-85
2023/09/11 10:02:28;;;;;;;21.30;20.30;;;25.90;99.90;;;;;;5032380;28;20477;-82
2023/09/11 10:04:58;;;;;;;21.07;19.87;;;26.00;99.90;;;;;;5027418;28;20563;-82
2023/09/11 10:07:38;;;;;;;20.93;20.03;;;26.00;99.90;;;;;;5030633;28;20484;-84
2023/09/11 10:10:21;;;;;;;21.70;20.43;;;26.20;99.90;;;;;;5031051;28;20486;-82
2023/09/11 10:12:54;;;;;;;21.07;19.70;;;26.20;99.90;;;;;;5034965;28;20446;-84
2023/09/11 10:15:23;;;;;;;20.80;19.60;;;26.20;99.90;;;;;;5013274;28;20456;-86
2023/09/11 10:17:55;;;;;;;19.90;18.90;;;26.20;99.90;;;;;;5028846;28;20521;-85
2023/09/11 10:20:24;;;;;;;21.40;20.30;;;26.20;99.90;;;;;;5029880;28;20466;-85
2023/09/11 10:22:54;;;;;;;20.37;19.27;;;26.30;99.90;;;;;;5030149;28;20460;-84
2023/09/11 10:25:23;;;;;;;19.53;18.63;;;26.30;99.90;;;;;;5027905;28;20503;-85
2023/09/11 10:27:58;;;;;;;19.87;18.90;;;26.40;99.90;;;;;;5032617;28;21186;-84
2023/09/11 10:30:29;;;;;;;19.90;18.70;;;26.50;99.90;;;;;;5030698;28;20446;-84
2023/09/11 10:33:01;;;;;;;20.00;18.90;;;26.60;99.90;;;;;;5028357;28;20457;-83
2023/09/11 10:35:34;;;;;;;19.37;18.40;;;26.60;99.90;;;;;;5027068;28;20453;-85
2023/09/11 10:38:04;;;;;;;19.10;17.80;;;26.60;99.90;;;;;;5029737;28;21119;-84
2023/09/11 10:40:34;;;;;;;19.40;18.23;;;26.70;99.90;;;;;;5029787;28;20544;-84
2023/09/11 10:43:04;;;;;;;18.90;18.10;;;26.80;99.90;;;;;;5030700;28;20448;-84
2023/09/11 10:45:33;;;;;;;19.10;18.10;;;26.80;99.90;;;;;;5028347;28;20462;-81
2023/09/11 10:48:02;;;;;;;19.50;18.43;;;26.80;99.90;;;;;;5031120;28;20880;-84
2023/09/11 10:50:32;;;;;;;19.80;18.80;;;26.90;99.90;;;;;;5031422;28;20560;-84
2023/09/11 10:53:00;;;;;;;19.80;18.77;;;27.00;99.90;;;;;;5032201;28;20460;-85
2023/09/11 10:55:28;;;;;;;19.20;18.43;;;27.00;99.90;;;;;;5014703;28;20458;-86
2023/09/11 10:57:58;;;;;;;20.10;18.50;;;27.10;99.90;;;;;;5030554;28;20461;-81
2023/09/11 11:00:28;;;;;;;19.10;18.00;;;27.10;99.90;;;;;;5033297;28;20465;-82
2023/09/11 11:02:56;;;;;;;19.87;18.77;;;27.10;99.90;;;;;;5032023;28;20453;-83
2023/09/11 11:05:26;;;;;;;19.47;18.57;;;27.10;99.90;;;;;;5032119;28;20530;-83
2023/09/11 11:07:55;;;;;;;19.67;18.40;;;27.10;99.90;;;;;;5015406;28;20541;-85
2023/09/11 11:10:23;;;;;;;19.00;17.93;;;27.10;99.90;;;;;;5032372;28;20467;-83
2023/09/11 11:13:06;;;;;;;19.33;18.30;;;27.20;99.90;;;;;;5034465;28;20441;-84
2023/09/11 11:15:35;;;;;;;20.60;19.03;;;27.20;99.90;;;;;;5031675;28;20847;-86
2023/09/11 11:18:09;;;;;;;19.50;18.40;;;27.30;99.90;;;;;;5030007;28;20486;-84
2023/09/11 11:20:58;;;;;;;19.83;18.70;;;27.30;99.90;;;;;;5008607;28;20462;-83
2023/09/11 11:23:32;;;;;;;19.50;18.00;;;27.30;99.90;;;;;;5028041;28;20469;-84
2023/09/11 11:26:04;;;;;;;19.03;17.93;;;27.40;99.90;;;;;;5029519;28;20593;-83
2023/09/11 11:28:40;;;;;;;19.00;17.87;;;27.40;99.90;;;;;;5028249;28;20473;-83
2023/09/11 11:31:15;;;;;;;18.90;17.60;;;27.50;99.90;;;;;;5025603;28;20457;-85
2023/09/11 11:33:46;;;;;;;18.73;17.80;;;27.50;99.90;;;;;;5031502;28;20989;-84
2023/09/11 11:36:17;;;;;;;19.50;18.20;;;27.40;99.90;;;;;;5031543;28;20468;-85
2023/09/11 11:38:45;;;;;;;21.00;19.67;;;27.50;99.90;;;;;;5026671;28;20809;-84
2023/09/11 11:41:15;;;;;;;19.50;18.47;;;27.60;99.90;;;;;;5025152;28;20467;-84
2023/09/11 11:43:46;;;;;;;19.40;18.50;;;27.80;99.90;;;;;;5030304;28;20499;-82
2023/09/11 11:46:16;;;;;;;19.60;18.40;;;27.80;99.90;;;;;;5032875;28;20540;-84
2023/09/11 11:48:45;;;;;;;20.20;19.00;;;27.90;99.90;;;;;;5031215;28;20518;-84
2023/09/11 11:51:13;;;;;;;18.60;17.70;;;27.80;99.90;;;;;;5033057;28;20454;-84
2023/09/11 11:53:42;;;;;;;19.53;18.33;;;27.70;99.90;;;;;;5032662;28;20461;-83
2023/09/11 11:56:11;;;;;;;19.30;18.33;;;27.70;99.90;;;;;;5031740;28;20834;-83
2023/09/11 11:58:39;;;;;;;19.33;18.20;;;27.70;99.90;;;;;;5031079;28;20788;-85
2023/09/11 12:01:08;;;;;;;19.50;18.40;;;27.70;99.90;;;;;;5033566;28;20461;-82
2023/09/11 12:03:48;;;;;;;19.80;18.70;;;27.70;99.90;;;;;;5013188;28;20553;-85
2023/09/11 12:06:17;;;;;;;19.63;18.53;;;27.70;99.90;;;;;;5034024;28;20444;-84
2023/09/11 12:08:46;;;;;;;19.20;18.40;;;27.70;99.90;;;;;;5026936;28;20957;-85
2023/09/11 12:11:14;;;;;;;19.90;18.73;;;27.70;99.90;;;;;;5026259;28;20584;-85
2023/09/11 12:13:43;;;;;;;19.37;18.37;;;27.80;99.90;;;;;;5028924;28;20451;-83
2023/09/11 12:16:17;;;;;;;20.20;19.00;;;27.90;99.90;;;;;;5030407;28;20830;-83
2023/09/11 12:18:47;;;;;;;19.60;18.30;;;27.90;99.90;;;;;;5029182;28;20469;-83
2023/09/11 12:21:15;;;;;;;20.10;18.93;;;27.90;99.90;;;;;;5027525;28;20545;-82
2023/09/11 12:23:44;;;;;;;19.33;18.33;;;27.90;99.90;;;;;;4964211;28;20470;-84
2023/09/11 12:26:12;;;;;;;20.37;19.17;;;28.00;99.90;;;;;;5027511;28;20523;-84
2023/09/11 12:28:40;;;;;;;19.13;18.03;;;28.00;99.90;;;;;;5024123;28;20566;-84
2023/09/11 12:31:09;;;;;;;19.83;18.70;;;28.00;99.90;;;;;;5024220;28;20541;-84
2023/09/11 12:33:38;;;;;;;19.20;18.10;;;27.90;99.90;;;;;;5022844;28;20571;-82
2023/09/11 12:36:08;;;;;;;19.40;18.40;;;28.00;99.90;;;;;;5025054;28;21310;-82
2023/09/11 12:38:36;;;;;;;20.50;19.30;;;28.10;99.90;;;;;;5025480;28;20936;-82
2023/09/11 12:41:05;;;;;;;20.50;19.23;;;28.10;99.90;;;;;;5029236;28;20485;-83
2023/09/11 12:43:33;;;;;;;20.87;19.33;;;28.10;99.90;;;;;;5021276;28;20458;-80
2023/09/11 12:46:03;;;;;;;19.17;18.17;;;28.10;99.90;;;;;;5029135;28;20454;-81
2023/09/11 12:48:31;;;;;;;20.00;19.07;;;28.10;99.90;;;;;;5026269;28;21009;-82
2023/09/11 12:51:00;;;;;;;20.10;19.00;;;28.20;99.90;;;;;;5027230;28;21121;-81
2023/09/11 12:53:31;;;;;;;19.40;18.40;;;28.20;99.90;;;;;;5025453;28;20547;-82
2023/09/11 12:56:01;;;;;;;19.23;18.17;;;28.10;99.90;;;;;;5025633;28;20972;-83
2023/09/11 12:58:29;;;;;;;19.30;18.20;;;28.20;99.90;;;;;;5027459;28;21006;-82
2023/09/11 13:00:58;;;;;;;19.63;18.40;;;28.20;99.90;;;;;;5030665;28;20839;-82
2023/09/11 13:03:26;;;;;;;19.07;18.00;;;28.20;99.90;;;;;;4961352;28;20452;-81
2023/09/11 13:05:56;;;;;;;19.77;18.50;;;28.20;99.90;;;;;;5027967;28;20454;-79
2023/09/11 13:08:28;;;;;;;19.07;17.70;;;28.20;99.90;;;;;;5017207;28;20479;-83
2023/09/11 13:10:57;;;;;;;18.67;17.53;;;28.30;99.90;;;;;;5016193;28;20581;-81
2023/09/11 13:13:25;;;;;;;18.97;17.90;;;28.20;99.90;;;;;;5024218;28;20463;-82
2023/09/11 13:16:03;;;;;;;20.10;18.50;;;28.30;99.90;;;;;;5024052;28;20470;-79
2023/09/11 13:18:31;;;;;;;19.60;18.20;;;28.30;99.90;;;;;;5025187;28;20471;-81
2023/09/11 13:21:00;;;;;;;18.80;17.50;;;28.50;99.90;;;;;;5022595;28;20458;-83